sensor_id;sensor_type;location;lat;lon;timestamp;P1;durP1;ratioP1;P2;durP2;ratioP2
40501;SDS011;29631;49.168;9.848;2023-08-12T00:01:49;3.40;;;3.20;;
40501;SDS011;29631;49.168;9.848;2023-08-12T00:04:15;3.15;;;2.95;;
40501;SDS011;29631;49.168;9.848;2023-08-12T00:06:41;3.72;;;3.42;;
40501;SDS011;29631;49.168;9.848;2023-08-12T00:09:08;2.85;;;2.75;;
40501;SDS011;29631;49.168;9.848;2023-08-12T00:11:39;3.08;;;2.88;;
40501;SDS011;29631;49.168;9.848;2023-08-12T00:14:05;3.15;;;2.95;;
40501;SDS011;29631;49.168;9.848;2023-08-12T00:16:31;2.92;;;2.80;;
40501;SDS011;29631;49.168;9.848;2023-08-12T00:18:57;3.22;;;3.08;;
40501;SDS011;29631;49.168;9.848;2023-08-12T00:21:23;3.30;;;3.10;;
40501;SDS011;29631;49.168;9.848;2023-08-12T00:23:50;2.63;;;2.53;;
40501;SDS011;29631;49.168;9.848;2023-08-12T00:26:16;3.05;;;2.95;;
40501;SDS011;29631;49.168;9.848;2023-08-12T00:28:42;3.10;;;2.90;;
40501;SDS011;29631;49.168;9.848;2023-08-12T00:31:08;3.42;;;2.90;;
40501;SDS011;29631;49.168;9.848;2023-08-12T00:33:33;3.10;;;3.00;;
40501;SDS011;29631;49.168;9.848;2023-08-12T00:35:59;3.00;;;2.90;;
40501;SDS011;29631;49.168;9.848;2023-08-12T00:38:25;2.78;;;2.67;;
40501;SDS011;29631;49.168;9.848;2023-08-12T00:40:51;3.35;;;3.10;;
40501;SDS011;29631;49.168;9.848;2023-08-12T00:43:17;3.78;;;3.10;;
40501;SDS011;29631;49.168;9.848;2023-08-12T00:45:42;3.38;;;3.00;;
40501;SDS011;29631;49.168;9.848;2023-08-12T00:48:09;3.10;;;3.00;;
40501;SDS011;29631;49.168;9.848;2023-08-12T00:50:36;3.38;;;3.17;;
40501;SDS011;29631;49.168;9.848;2023-08-12T00:53:02;3.38;;;3.17;;
40501;SDS011;29631;49.168;9.848;2023-08-12T00:55:31;3.33;;;3.10;;
40501;SDS011;29631;49.168;9.848;2023-08-12T00:57:58;3.70;;;3.50;;
40501;SDS011;29631;49.168;9.848;2023-08-12T01:00:24;4.55;;;3.17;;
40501;SDS011;29631;49.168;9.848;2023-08-12T01:02:50;3.38;;;3.08;;
40501;SDS011;29631;49.168;9.848;2023-08-12T01:05:17;3.53;;;3.33;;
40501;SDS011;29631;49.168;9.848;2023-08-12T01:07:43;3.35;;;3.15;;
40501;SDS011;29631;49.168;9.848;2023-08-12T01:10:10;3.55;;;3.35;;
40501;SDS011;29631;49.168;9.848;2023-08-12T01:12:45;4.93;;;3.20;;
40501;SDS011;29631;49.168;9.848;2023-08-12T01:15:20;3.53;;;3.22;;
40501;SDS011;29631;49.168;9.848;2023-08-12T01:17:48;2.95;;;2.75;;
40501;SDS011;29631;49.168;9.848;2023-08-12T01:20:17;3.50;;;3.25;;
40501;SDS011;29631;49.168;9.848;2023-08-12T01:22:52;3.30;;;3.00;;
40501;SDS011;29631;49.168;9.848;2023-08-12T01:25:24;3.50;;;3.30;;
40501;SDS011;29631;49.168;9.848;2023-08-12T01:27:50;3.45;;;3.20;;
40501;SDS011;29631;49.168;9.848;2023-08-12T01:30:16;3.50;;;3.30;;
40501;SDS011;29631;49.168;9.848;2023-08-12T01:38:05;2.90;;;2.80;;
40501;SDS011;29631;49.168;9.848;2023-08-12T01:40:33;3.35;;;3.15;;
40501;SDS011;29631;49.168;9.848;2023-08-12T01:43:01;3.42;;;3.13;;
40501;SDS011;29631;49.168;9.848;2023-08-12T01:45:30;3.45;;;3.08;;
40501;SDS011;29631;49.168;9.848;2023-08-12T01:47:57;3.42;;;3.22;;
40501;SDS011;29631;49.168;9.848;2023-08-12T01:50:23;3.60;;;3.10;;
40501;SDS011;29631;49.168;9.848;2023-08-12T01:52:50;3.30;;;3.00;;
40501;SDS011;29631;49.168;9.848;2023-08-12T01:55:16;4.28;;;3.30;;
40501;SDS011;29631;49.168;9.848;2023-08-12T01:57:42;2.97;;;2.78;;
40501;SDS011;29631;49.168;9.848;2023-08-12T02:00:08;3.20;;;3.10;;
40501;SDS011;29631;49.168;9.848;2023-08-12T02:02:34;3.50;;;3.33;;
40501;SDS011;29631;49.168;9.848;2023-08-12T02:05:00;3.25;;;3.05;;
40501;SDS011;29631;49.168;9.848;2023-08-12T02:07:25;2.97;;;2.88;;
40501;SDS011;29631;49.168;9.848;2023-08-12T02:09:51;3.03;;;2.92;;
40501;SDS011;29631;49.168;9.848;2023-08-12T02:12:17;3.58;;;3.28;;
40501;SDS011;29631;49.168;9.848;2023-08-12T02:14:42;3.95;;;3.65;;
40501;SDS011;29631;49.168;9.848;2023-08-12T02:17:08;3.20;;;3.05;;
40501;SDS011;29631;49.168;9.848;2023-08-12T02:19:34;3.10;;;3.00;;
40501;SDS011;29631;49.168;9.848;2023-08-12T02:22:03;3.40;;;3.20;;
40501;SDS011;29631;49.168;9.848;2023-08-12T02:24:29;3.30;;;3.10;;
40501;SDS011;29631;49.168;9.848;2023-08-12T02:26:55;3.00;;;2.90;;
40501;SDS011;29631;49.168;9.848;2023-08-12T02:29:21;3.22;;;3.05;;
40501;SDS011;29631;49.168;9.848;2023-08-12T02:31:46;3.42;;;3.17;;
40501;SDS011;29631;49.168;9.848;2023-08-12T02:34:12;3.17;;;3.03;;
40501;SDS011;29631;49.168;9.848;2023-08-12T02:36:38;3.33;;;3.15;;
40501;SDS011;29631;49.168;9.848;2023-08-12T02:39:04;3.10;;;2.90;;
40501;SDS011;29631;49.168;9.848;2023-08-12T02:41:30;3.40;;;3.20;;
40501;SDS011;29631;49.168;9.848;2023-08-12T02:43:56;3.08;;;2.97;;
40501;SDS011;29631;49.168;9.848;2023-08-12T02:46:22;3.28;;;3.08;;
40501;SDS011;29631;49.168;9.848;2023-08-12T02:48:48;2.95;;;2.75;;
40501;SDS011;29631;49.168;9.848;2023-08-12T02:51:14;3.53;;;2.80;;
40501;SDS011;29631;49.168;9.848;2023-08-12T02:53:39;3.50;;;3.30;;
40501;SDS011;29631;49.168;9.848;2023-08-12T02:56:05;2.88;;;2.78;;
40501;SDS011;29631;49.168;9.848;2023-08-12T02:58:31;2.63;;;2.53;;
40501;SDS011;29631;49.168;9.848;2023-08-12T03:00:57;2.97;;;2.78;;
40501;SDS011;29631;49.168;9.848;2023-08-12T03:03:22;3.58;;;3.20;;
40501;SDS011;29631;49.168;9.848;2023-08-12T03:05:48;3.75;;;3.50;;
40501;SDS011;29631;49.168;9.848;2023-08-12T03:08:14;5.82;;;3.47;;
40501;SDS011;29631;49.168;9.848;2023-08-12T03:10:41;3.22;;;3.13;;
40501;SDS011;29631;49.168;9.848;2023-08-12T03:13:07;3.40;;;3.10;;
40501;SDS011;29631;49.168;9.848;2023-08-12T03:15:33;4.13;;;3.25;;
40501;SDS011;29631;49.168;9.848;2023-08-12T03:17:59;3.47;;;3.17;;
40501;SDS011;29631;49.168;9.848;2023-08-12T03:20:24;3.35;;;3.15;;
40501;SDS011;29631;49.168;9.848;2023-08-12T03:22:50;3.38;;;3.17;;
40501;SDS011;29631;49.168;9.848;2023-08-12T03:25:16;3.42;;;3.17;;
40501;SDS011;29631;49.168;9.848;2023-08-12T03:27:42;3.22;;;3.03;;
40501;SDS011;29631;49.168;9.848;2023-08-12T03:30:08;3.53;;;3.22;;
40501;SDS011;29631;49.168;9.848;2023-08-12T03:32:34;2.90;;;2.80;;
40501;SDS011;29631;49.168;9.848;2023-08-12T03:35:00;3.92;;;2.97;;
40501;SDS011;29631;49.168;9.848;2023-08-12T03:37:26;3.08;;;2.88;;
40501;SDS011;29631;49.168;9.848;2023-08-12T03:39:52;3.10;;;3.00;;
40501;SDS011;29631;49.168;9.848;2023-08-12T03:42:17;3.00;;;2.90;;
40501;SDS011;29631;49.168;9.848;2023-08-12T03:44:43;3.03;;;2.80;;
40501;SDS011;29631;49.168;9.848;2023-08-12T03:47:09;3.00;;;2.80;;
40501;SDS011;29631;49.168;9.848;2023-08-12T03:49:36;3.40;;;3.10;;
40501;SDS011;29631;49.168;9.848;2023-08-12T03:52:02;2.88;;;2.78;;
40501;SDS011;29631;49.168;9.848;2023-08-12T03:54:29;2.90;;;2.70;;
40501;SDS011;29631;49.168;9.848;2023-08-12T03:56:55;3.40;;;3.20;;
40501;SDS011;29631;49.168;9.848;2023-08-12T03:59:20;3.30;;;3.10;;
40501;SDS011;29631;49.168;9.848;2023-08-12T04:01:47;2.85;;;2.75;;
40501;SDS011;29631;49.168;9.848;2023-08-12T04:04:13;3.10;;;2.95;;
40501;SDS011;29631;49.168;9.848;2023-08-12T04:06:38;2.78;;;2.67;;
40501;SDS011;29631;49.168;9.848;2023-08-12T04:09:04;3.25;;;3.10;;
40501;SDS011;29631;49.168;9.848;2023-08-12T04:11:30;3.30;;;3.10;;
40501;SDS011;29631;49.168;9.848;2023-08-12T04:13:56;3.00;;;2.90;;
40501;SDS011;29631;49.168;9.848;2023-08-12T04:16:21;3.15;;;2.95;;
40501;SDS011;29631;49.168;9.848;2023-08-12T04:18:48;3.35;;;3.10;;
40501;SDS011;29631;49.168;9.848;2023-08-12T04:21:13;2.90;;;2.80;;
40501;SDS011;29631;49.168;9.848;2023-08-12T04:23:39;2.92;;;2.70;;
40501;SDS011;29631;49.168;9.848;2023-08-12T04:26:05;2.95;;;2.85;;
40501;SDS011;29631;49.168;9.848;2023-08-12T04:28:31;2.65;;;2.55;;
40501;SDS011;29631;49.168;9.848;2023-08-12T04:30:57;2.97;;;2.78;;
40501;SDS011;29631;49.168;9.848;2023-08-12T04:33:22;3.80;;;2.67;;
40501;SDS011;29631;49.168;9.848;2023-08-12T04:35:49;2.83;;;2.72;;
40501;SDS011;29631;49.168;9.848;2023-08-12T04:38:15;3.28;;;2.97;;
40501;SDS011;29631;49.168;9.848;2023-08-12T04:40:40;2.92;;;2.72;;
40501;SDS011;29631;49.168;9.848;2023-08-12T04:43:10;3.08;;;2.72;;
40501;SDS011;29631;49.168;9.848;2023-08-12T04:45:36;2.60;;;2.50;;
40501;SDS011;29631;49.168;9.848;2023-08-12T04:48:03;2.63;;;2.42;;
40501;SDS011;29631;49.168;9.848;2023-08-12T04:50:30;3.00;;;2.80;;
40501;SDS011;29631;49.168;9.848;2023-08-12T04:52:56;3.38;;;3.15;;
40501;SDS011;29631;49.168;9.848;2023-08-12T04:55:24;3.28;;;3.00;;
40501;SDS011;29631;49.168;9.848;2023-08-12T04:57:50;2.90;;;2.80;;
40501;SDS011;29631;49.168;9.848;2023-08-12T05:00:16;2.60;;;2.50;;
40501;SDS011;29631;49.168;9.848;2023-08-12T05:02:42;3.10;;;3.00;;
40501;SDS011;29631;49.168;9.848;2023-08-12T05:05:08;2.50;;;2.40;;
40501;SDS011;29631;49.168;9.848;2023-08-12T05:07:34;2.97;;;2.83;;
40501;SDS011;29631;49.168;9.848;2023-08-12T05:10:00;2.83;;;2.65;;
40501;SDS011;29631;49.168;9.848;2023-08-12T05:12:26;2.83;;;2.72;;
40501;SDS011;29631;49.168;9.848;2023-08-12T05:14:52;3.00;;;2.90;;
40501;SDS011;29631;49.168;9.848;2023-08-12T05:17:18;2.55;;;2.45;;
40501;SDS011;29631;49.168;9.848;2023-08-12T05:19:43;2.80;;;2.70;;
40501;SDS011;29631;49.168;9.848;2023-08-12T05:22:10;3.03;;;2.83;;
40501;SDS011;29631;49.168;9.848;2023-08-12T05:24:36;2.95;;;2.85;;
40501;SDS011;29631;49.168;9.848;2023-08-12T05:27:01;3.08;;;2.88;;
40501;SDS011;29631;49.168;9.848;2023-08-12T05:29:29;2.95;;;2.85;;
40501;SDS011;29631;49.168;9.848;2023-08-12T05:31:55;2.97;;;2.88;;
40501;SDS011;29631;49.168;9.848;2023-08-12T05:34:21;7.47;;;3.92;;
40501;SDS011;29631;49.168;9.848;2023-08-12T05:36:47;4.38;;;4.07;;
40501;SDS011;29631;49.168;9.848;2023-08-12T05:39:13;4.32;;;4.03;;
40501;SDS011;29631;49.168;9.848;2023-08-12T05:41:40;4.53;;;4.22;;
40501;SDS011;29631;49.168;9.848;2023-08-12T05:44:06;4.72;;;4.32;;
40501;SDS011;29631;49.168;9.848;2023-08-12T05:46:32;3.97;;;3.55;;
40501;SDS011;29631;49.168;9.848;2023-08-12T05:48:58;3.63;;;3.35;;
40501;SDS011;29631;49.168;9.848;2023-08-12T05:51:24;3.55;;;3.25;;
40501;SDS011;29631;49.168;9.848;2023-08-12T05:53:50;3.45;;;3.22;;
40501;SDS011;29631;49.168;9.848;2023-08-12T05:56:16;3.45;;;3.25;;
40501;SDS011;29631;49.168;9.848;2023-08-12T05:58:42;3.60;;;3.40;;
40501;SDS011;29631;49.168;9.848;2023-08-12T06:01:07;5.68;;;3.35;;
40501;SDS011;29631;49.168;9.848;2023-08-12T06:03:33;3.05;;;2.95;;
40501;SDS011;29631;49.168;9.848;2023-08-12T06:05:59;3.88;;;3.58;;
40501;SDS011;29631;49.168;9.848;2023-08-12T06:08:24;3.80;;;3.60;;
40501;SDS011;29631;49.168;9.848;2023-08-12T06:10:50;2.95;;;2.78;;
40501;SDS011;29631;49.168;9.848;2023-08-12T06:13:16;3.38;;;3.10;;
40501;SDS011;29631;49.168;9.848;2023-08-12T06:15:42;3.40;;;3.15;;
40501;SDS011;29631;49.168;9.848;2023-08-12T06:18:07;3.72;;;3.33;;
40501;SDS011;29631;49.168;9.848;2023-08-12T06:20:33;3.97;;;3.40;;
40501;SDS011;29631;49.168;9.848;2023-08-12T06:22:59;3.22;;;2.92;;
40501;SDS011;29631;49.168;9.848;2023-08-12T06:25:24;3.50;;;3.30;;
40501;SDS011;29631;49.168;9.848;2023-08-12T06:27:50;3.20;;;3.00;;
40501;SDS011;29631;49.168;9.848;2023-08-12T06:30:16;3.63;;;3.42;;
40501;SDS011;29631;49.168;9.848;2023-08-12T06:32:42;2.90;;;2.80;;
40501;SDS011;29631;49.168;9.848;2023-08-12T06:35:07;3.00;;;2.80;;
40501;SDS011;29631;49.168;9.848;2023-08-12T06:37:33;3.05;;;2.85;;
40501;SDS011;29631;49.168;9.848;2023-08-12T06:39:59;3.03;;;2.92;;
40501;SDS011;29631;49.168;9.848;2023-08-12T06:42:25;3.10;;;2.88;;
40501;SDS011;29631;49.168;9.848;2023-08-12T06:44:58;3.03;;;2.83;;
40501;SDS011;29631;49.168;9.848;2023-08-12T06:47:25;3.67;;;2.80;;
40501;SDS011;29631;49.168;9.848;2023-08-12T06:49:52;2.85;;;2.75;;
40501;SDS011;29631;49.168;9.848;2023-08-12T06:52:18;2.80;;;2.70;;
40501;SDS011;29631;49.168;9.848;2023-08-12T06:54:44;3.38;;;3.05;;
40501;SDS011;29631;49.168;9.848;2023-08-12T06:57:10;3.20;;;2.95;;
40501;SDS011;29631;49.168;9.848;2023-08-12T06:59:36;2.75;;;2.65;;
40501;SDS011;29631;49.168;9.848;2023-08-12T07:02:03;3.00;;;2.80;;
40501;SDS011;29631;49.168;9.848;2023-08-12T07:04:30;3.22;;;3.13;;
40501;SDS011;29631;49.168;9.848;2023-08-12T07:06:56;2.80;;;2.70;;
40501;SDS011;29631;49.168;9.848;2023-08-12T07:09:21;2.80;;;2.70;;
40501;SDS011;29631;49.168;9.848;2023-08-12T07:11:47;3.15;;;2.92;;
40501;SDS011;29631;49.168;9.848;2023-08-12T07:14:13;2.40;;;2.30;;
40501;SDS011;29631;49.168;9.848;2023-08-12T07:16:39;3.03;;;2.83;;
40501;SDS011;29631;49.168;9.848;2023-08-12T07:19:04;2.80;;;2.60;;
40501;SDS011;29631;49.168;9.848;2023-08-12T07:21:30;2.75;;;2.65;;
40501;SDS011;29631;49.168;9.848;2023-08-12T07:23:56;3.08;;;2.88;;
40501;SDS011;29631;49.168;9.848;2023-08-12T07:26:21;2.78;;;2.67;;
40501;SDS011;29631;49.168;9.848;2023-08-12T07:28:47;2.75;;;2.65;;
40501;SDS011;29631;49.168;9.848;2023-08-12T07:31:13;2.72;;;2.63;;
40501;SDS011;29631;49.168;9.848;2023-08-12T07:33:39;2.97;;;2.75;;
40501;SDS011;29631;49.168;9.848;2023-08-12T07:36:04;2.90;;;2.72;;
40501;SDS011;29631;49.168;9.848;2023-08-12T07:38:31;4.78;;;3.10;;
40501;SDS011;29631;49.168;9.848;2023-08-12T07:40:57;3.00;;;2.90;;
40501;SDS011;29631;49.168;9.848;2023-08-12T07:43:23;3.00;;;2.80;;
40501;SDS011;29631;49.168;9.848;2023-08-12T07:45:50;2.90;;;2.70;;
40501;SDS011;29631;49.168;9.848;2023-08-12T07:48:19;2.60;;;2.50;;
40501;SDS011;29631;49.168;9.848;2023-08-12T07:50:46;2.90;;;2.72;;
40501;SDS011;29631;49.168;9.848;2023-08-12T07:53:15;2.92;;;2.78;;
40501;SDS011;29631;49.168;9.848;2023-08-12T07:55:41;2.80;;;2.65;;
40501;SDS011;29631;49.168;9.848;2023-08-12T07:58:08;2.47;;;2.38;;
40501;SDS011;29631;49.168;9.848;2023-08-12T08:00:34;2.75;;;2.60;;
40501;SDS011;29631;49.168;9.848;2023-08-12T08:02:59;3.17;;;2.97;;
40501;SDS011;29631;49.168;9.848;2023-08-12T08:05:25;3.00;;;2.83;;
40501;SDS011;29631;49.168;9.848;2023-08-12T08:07:51;3.13;;;2.92;;
40501;SDS011;29631;49.168;9.848;2023-08-12T08:10:16;3.20;;;3.00;;
40501;SDS011;29631;49.168;9.848;2023-08-12T08:12:42;2.80;;;2.70;;
40501;SDS011;29631;49.168;9.848;2023-08-12T08:15:08;3.55;;;2.92;;
40501;SDS011;29631;49.168;9.848;2023-08-12T08:17:34;2.58;;;2.33;;
40501;SDS011;29631;49.168;9.848;2023-08-12T08:20:00;3.55;;;3.35;;
40501;SDS011;29631;49.168;9.848;2023-08-12T08:22:26;2.80;;;2.70;;
40501;SDS011;29631;49.168;9.848;2023-08-12T08:24:51;3.08;;;2.97;;
40501;SDS011;29631;49.168;9.848;2023-08-12T08:27:17;2.97;;;2.88;;
40501;SDS011;29631;49.168;9.848;2023-08-12T08:29:43;3.42;;;3.22;;
40501;SDS011;29631;49.168;9.848;2023-08-12T08:32:08;3.38;;;3.17;;
40501;SDS011;29631;49.168;9.848;2023-08-12T08:34:34;3.92;;;3.47;;
40501;SDS011;29631;49.168;9.848;2023-08-12T08:37:00;2.85;;;2.75;;
40501;SDS011;29631;49.168;9.848;2023-08-12T08:39:26;3.22;;;2.92;;
40501;SDS011;29631;49.168;9.848;2023-08-12T08:41:51;3.67;;;3.33;;
40501;SDS011;29631;49.168;9.848;2023-08-12T08:44:21;3.53;;;3.30;;
40501;SDS011;29631;49.168;9.848;2023-08-12T08:46:51;2.83;;;2.63;;
40501;SDS011;29631;49.168;9.848;2023-08-12T08:49:21;2.60;;;2.50;;
40501;SDS011;29631;49.168;9.848;2023-08-12T08:51:47;3.35;;;3.13;;
40501;SDS011;29631;49.168;9.848;2023-08-12T08:54:15;3.45;;;3.25;;
40501;SDS011;29631;49.168;9.848;2023-08-12T08:56:40;3.83;;;2.85;;
40501;SDS011;29631;49.168;9.848;2023-08-12T08:59:07;2.95;;;2.75;;
40501;SDS011;29631;49.168;9.848;2023-08-12T09:01:33;3.38;;;3.17;;
40501;SDS011;29631;49.168;9.848;2023-08-12T09:04:01;4.00;;;3.20;;
40501;SDS011;29631;49.168;9.848;2023-08-12T09:06:29;8.73;;;3.92;;
40501;SDS011;29631;49.168;9.848;2023-08-12T09:08:55;19.65;;;4.85;;
40501;SDS011;29631;49.168;9.848;2023-08-12T09:11:21;3.22;;;3.03;;
40501;SDS011;29631;49.168;9.848;2023-08-12T09:13:48;2.83;;;2.70;;
40501;SDS011;29631;49.168;9.848;2023-08-12T09:16:14;3.25;;;3.05;;
40501;SDS011;29631;49.168;9.848;2023-08-12T09:18:41;2.63;;;2.53;;
40501;SDS011;29631;49.168;9.848;2023-08-12T09:21:08;3.35;;;2.72;;
40501;SDS011;29631;49.168;9.848;2023-08-12T09:23:35;3.22;;;3.03;;
40501;SDS011;29631;49.168;9.848;2023-08-12T09:26:10;3.03;;;2.90;;
40501;SDS011;29631;49.168;9.848;2023-08-12T09:28:42;3.45;;;3.13;;
40501;SDS011;29631;49.168;9.848;2023-08-12T09:31:25;2.70;;;2.60;;
40501;SDS011;29631;49.168;9.848;2023-08-12T09:33:53;2.85;;;2.65;;
40501;SDS011;29631;49.168;9.848;2023-08-12T09:36:28;2.70;;;2.60;;
40501;SDS011;29631;49.168;9.848;2023-08-12T09:38:56;11.70;;;4.13;;
40501;SDS011;29631;49.168;9.848;2023-08-12T09:41:24;7.75;;;3.25;;
40501;SDS011;29631;49.168;9.848;2023-08-12T09:43:51;2.80;;;2.70;;
40501;SDS011;29631;49.168;9.848;2023-08-12T09:46:23;2.47;;;2.38;;
40501;SDS011;29631;49.168;9.848;2023-08-12T09:48:50;2.70;;;2.50;;
40501;SDS011;29631;49.168;9.848;2023-08-12T09:51:19;2.70;;;2.60;;
40501;SDS011;29631;49.168;9.848;2023-08-12T09:53:49;2.65;;;2.50;;
40501;SDS011;29631;49.168;9.848;2023-08-12T09:56:17;2.72;;;2.63;;
40501;SDS011;29631;49.168;9.848;2023-08-12T09:58:47;2.70;;;2.60;;
40501;SDS011;29631;49.168;9.848;2023-08-12T10:01:15;3.00;;;2.90;;
40501;SDS011;29631;49.168;9.848;2023-08-12T10:03:50;2.30;;;2.20;;
40501;SDS011;29631;49.168;9.848;2023-08-12T10:06:17;2.70;;;2.60;;
40501;SDS011;29631;49.168;9.848;2023-08-12T10:08:43;2.80;;;2.60;;
40501;SDS011;29631;49.168;9.848;2023-08-12T10:11:12;3.15;;;2.50;;
40501;SDS011;29631;49.168;9.848;2023-08-12T10:13:42;2.33;;;2.22;;
40501;SDS011;29631;49.168;9.848;2023-08-12T10:16:09;2.60;;;2.40;;
40501;SDS011;29631;49.168;9.848;2023-08-12T10:18:36;2.83;;;2.55;;
40501;SDS011;29631;49.168;9.848;2023-08-12T10:21:06;2.90;;;2.70;;
40501;SDS011;29631;49.168;9.848;2023-08-12T10:23:36;2.50;;;2.40;;
40501;SDS011;29631;49.168;9.848;2023-08-12T10:26:02;2.67;;;2.58;;
40501;SDS011;29631;49.168;9.848;2023-08-12T10:28:32;2.25;;;2.15;;
40501;SDS011;29631;49.168;9.848;2023-08-12T10:31:02;2.72;;;2.63;;
40501;SDS011;29631;49.168;9.848;2023-08-12T10:33:34;2.78;;;2.25;;
40501;SDS011;29631;49.168;9.848;2023-08-12T10:36:05;2.58;;;2.47;;
40501;SDS011;29631;49.168;9.848;2023-08-12T10:38:32;2.75;;;2.55;;
40501;SDS011;29631;49.168;9.848;2023-08-12T10:44:21;3.42;;;2.50;;
40501;SDS011;29631;49.168;9.848;2023-08-12T10:46:39;2.85;;;2.65;;
40501;SDS011;29631;49.168;9.848;2023-08-12T10:49:14;2.53;;;2.42;;
40501;SDS011;29631;49.168;9.848;2023-08-12T10:51:53;3.40;;;3.20;;
40501;SDS011;29631;49.168;9.848;2023-08-12T10:54:23;4.07;;;2.95;;
40501;SDS011;29631;49.168;9.848;2023-08-12T11:02:30;2.42;;;2.28;;
40501;SDS011;29631;49.168;9.848;2023-08-12T11:05:02;2.53;;;2.25;;
40501;SDS011;29631;49.168;9.848;2023-08-12T11:12:39;2.50;;;2.40;;
40501;SDS011;29631;49.168;9.848;2023-08-12T11:15:06;2.13;;;2.03;;
40501;SDS011;29631;49.168;9.848;2023-08-12T11:17:33;2.47;;;2.38;;
40501;SDS011;29631;49.168;9.848;2023-08-12T11:20:02;1.95;;;1.77;;
40501;SDS011;29631;49.168;9.848;2023-08-12T11:22:32;2.30;;;2.10;;
40501;SDS011;29631;49.168;9.848;2023-08-12T11:25:01;8.38;;;3.35;;
40501;SDS011;29631;49.168;9.848;2023-08-12T11:27:30;3.70;;;3.47;;
40501;SDS011;29631;49.168;9.848;2023-08-12T11:30:11;2.83;;;2.50;;
40501;SDS011;29631;49.168;9.848;2023-08-12T11:32:40;2.33;;;2.22;;
40501;SDS011;29631;49.168;9.848;2023-08-12T11:35:08;5.25;;;2.42;;
40501;SDS011;29631;49.168;9.848;2023-08-12T11:37:37;2.08;;;1.98;;
40501;SDS011;29631;49.168;9.848;2023-08-12T11:40:04;2.08;;;1.98;;
40501;SDS011;29631;49.168;9.848;2023-08-12T11:42:33;2.33;;;2.22;;
40501;SDS011;29631;49.168;9.848;2023-08-12T11:45:01;2.35;;;2.25;;
40501;SDS011;29631;49.168;9.848;2023-08-12T11:47:28;2.50;;;2.30;;
40501;SDS011;29631;49.168;9.848;2023-08-12T11:49:53;2.78;;;2.53;;
40501;SDS011;29631;49.168;9.848;2023-08-12T11:52:19;2.40;;;2.30;;
40501;SDS011;29631;49.168;9.848;2023-08-12T11:54:46;2.40;;;2.30;;
40501;SDS011;29631;49.168;9.848;2023-08-12T11:57:14;2.42;;;2.17;;
40501;SDS011;29631;49.168;9.848;2023-08-12T11:59:40;2.88;;;2.67;;
40501;SDS011;29631;49.168;9.848;2023-08-12T12:02:06;4.20;;;2.30;;
40501;SDS011;29631;49.168;9.848;2023-08-12T12:04:32;5.38;;;2.40;;
40501;SDS011;29631;49.168;9.848;2023-08-12T12:06:59;4.82;;;2.40;;
40501;SDS011;29631;49.168;9.848;2023-08-12T12:09:31;3.20;;;2.53;;
40501;SDS011;29631;49.168;9.848;2023-08-12T12:11:59;3.33;;;2.30;;
40501;SDS011;29631;49.168;9.848;2023-08-12T12:14:25;2.58;;;2.38;;
40501;SDS011;29631;49.168;9.848;2023-08-12T12:16:51;2.67;;;2.40;;
40501;SDS011;29631;49.168;9.848;2023-08-12T12:21:47;2.35;;;2.25;;
40501;SDS011;29631;49.168;9.848;2023-08-12T12:24:18;2.55;;;2.40;;
40501;SDS011;29631;49.168;9.848;2023-08-12T12:26:45;2.35;;;2.25;;
40501;SDS011;29631;49.168;9.848;2023-08-12T12:29:12;26.60;;;23.00;;
40501;SDS011;29631;49.168;9.848;2023-08-12T12:31:38;14.23;;;12.70;;
40501;SDS011;29631;49.168;9.848;2023-08-12T12:34:06;15.23;;;13.65;;
40501;SDS011;29631;49.168;9.848;2023-08-12T12:36:35;17.40;;;15.60;;
40501;SDS011;29631;49.168;9.848;2023-08-12T12:39:03;11.05;;;8.73;;
40501;SDS011;29631;49.168;9.848;2023-08-12T12:41:30;5.00;;;4.60;;
40501;SDS011;29631;49.168;9.848;2023-08-12T12:43:56;5.20;;;4.80;;
40501;SDS011;29631;49.168;9.848;2023-08-12T12:46:22;3.30;;;3.10;;
40501;SDS011;29631;49.168;9.848;2023-08-12T12:48:48;2.95;;;2.75;;
40501;SDS011;29631;49.168;9.848;2023-08-12T12:51:14;3.22;;;3.03;;
40501;SDS011;29631;49.168;9.848;2023-08-12T12:53:40;2.97;;;2.78;;
40501;SDS011;29631;49.168;9.848;2023-08-12T12:56:06;2.88;;;2.60;;
40501;SDS011;29631;49.168;9.848;2023-08-12T12:58:32;3.33;;;2.92;;
40501;SDS011;29631;49.168;9.848;2023-08-12T13:01:00;3.97;;;3.13;;
40501;SDS011;29631;49.168;9.848;2023-08-12T13:03:26;3.28;;;3.08;;
40501;SDS011;29631;49.168;9.848;2023-08-12T13:05:52;4.30;;;3.90;;
40501;SDS011;29631;49.168;9.848;2023-08-12T13:08:19;3.70;;;3.50;;
40501;SDS011;29631;49.168;9.848;2023-08-12T13:10:45;4.78;;;3.20;;
40501;SDS011;29631;49.168;9.848;2023-08-12T13:13:12;5.30;;;3.28;;
40501;SDS011;29631;49.168;9.848;2023-08-12T13:15:40;3.60;;;3.30;;
40501;SDS011;29631;49.168;9.848;2023-08-12T13:18:07;4.45;;;3.22;;
40501;SDS011;29631;49.168;9.848;2023-08-12T13:20:33;3.50;;;3.30;;
40501;SDS011;29631;49.168;9.848;2023-08-12T13:23:00;3.90;;;3.70;;
40501;SDS011;29631;49.168;9.848;2023-08-12T13:25:28;3.70;;;3.40;;
40501;SDS011;29631;49.168;9.848;2023-08-12T13:27:57;3.97;;;2.97;;
40501;SDS011;29631;49.168;9.848;2023-08-12T13:30:23;3.40;;;3.20;;
40501;SDS011;29631;49.168;9.848;2023-08-12T13:32:49;4.57;;;4.28;;
40501;SDS011;29631;49.168;9.848;2023-08-12T13:35:14;4.75;;;4.30;;
40501;SDS011;29631;49.168;9.848;2023-08-12T13:37:42;5.18;;;3.67;;
40501;SDS011;29631;49.168;9.848;2023-08-12T13:40:08;3.80;;;3.50;;
40501;SDS011;29631;49.168;9.848;2023-08-12T13:42:34;3.53;;;3.33;;
40501;SDS011;29631;49.168;9.848;2023-08-12T13:45:00;3.72;;;3.42;;
40501;SDS011;29631;49.168;9.848;2023-08-12T13:47:26;4.80;;;3.22;;
40501;SDS011;29631;49.168;9.848;2023-08-12T13:49:52;6.38;;;3.90;;
40501;SDS011;29631;49.168;9.848;2023-08-12T13:52:18;4.20;;;3.90;;
40501;SDS011;29631;49.168;9.848;2023-08-12T13:54:43;3.80;;;3.60;;
40501;SDS011;29631;49.168;9.848;2023-08-12T13:57:09;3.55;;;3.10;;
40501;SDS011;29631;49.168;9.848;2023-08-12T13:59:35;3.33;;;3.13;;
40501;SDS011;29631;49.168;9.848;2023-08-12T14:02:01;3.10;;;2.90;;
40501;SDS011;29631;49.168;9.848;2023-08-12T14:04:27;3.33;;;3.13;;
40501;SDS011;29631;49.168;9.848;2023-08-12T14:06:53;3.75;;;2.90;;
40501;SDS011;29631;49.168;9.848;2023-08-12T14:09:19;2.97;;;2.80;;
40501;SDS011;29631;49.168;9.848;2023-08-12T14:11:45;2.65;;;2.45;;
40501;SDS011;29631;49.168;9.848;2023-08-12T14:14:10;3.10;;;3.00;;
40501;SDS011;29631;49.168;9.848;2023-08-12T14:16:36;4.28;;;3.47;;
40501;SDS011;29631;49.168;9.848;2023-08-12T14:19:02;3.10;;;2.90;;
40501;SDS011;29631;49.168;9.848;2023-08-12T14:21:28;3.28;;;3.10;;
40501;SDS011;29631;49.168;9.848;2023-08-12T14:23:55;3.22;;;3.05;;
40501;SDS011;29631;49.168;9.848;2023-08-12T14:26:21;3.15;;;2.95;;
40501;SDS011;29631;49.168;9.848;2023-08-12T14:28:47;3.35;;;3.15;;
40501;SDS011;29631;49.168;9.848;2023-08-12T14:31:12;3.65;;;3.45;;
40501;SDS011;29631;49.168;9.848;2023-08-12T14:33:38;3.53;;;3.20;;
40501;SDS011;29631;49.168;9.848;2023-08-12T14:36:04;3.75;;;3.45;;
40501;SDS011;29631;49.168;9.848;2023-08-12T14:38:31;3.58;;;3.38;;
40501;SDS011;29631;49.168;9.848;2023-08-12T14:40:58;2.95;;;2.85;;
40501;SDS011;29631;49.168;9.848;2023-08-12T14:43:23;3.28;;;3.17;;
40501;SDS011;29631;49.168;9.848;2023-08-12T14:45:49;4.63;;;3.72;;
40501;SDS011;29631;49.168;9.848;2023-08-12T14:48:15;3.55;;;3.40;;
40501;SDS011;29631;49.168;9.848;2023-08-12T14:50:42;4.03;;;3.63;;
40501;SDS011;29631;49.168;9.848;2023-08-12T14:53:07;4.25;;;3.95;;
40501;SDS011;29631;49.168;9.848;2023-08-12T14:55:33;3.72;;;3.50;;
40501;SDS011;29631;49.168;9.848;2023-08-12T14:57:59;3.72;;;3.42;;
40501;SDS011;29631;49.168;9.848;2023-08-12T15:00:24;3.72;;;3.40;;
40501;SDS011;29631;49.168;9.848;2023-08-12T15:02:50;3.45;;;3.25;;
40501;SDS011;29631;49.168;9.848;2023-08-12T15:05:16;3.65;;;3.45;;
40501;SDS011;29631;49.168;9.848;2023-08-12T15:07:42;3.15;;;2.90;;